Latitude: N 50° 09' 49" Longitude: W 05° 11' 53" Elevation: 168m ASL

There are 25 visitors online

Adverts
Latest METAR Data

Below are the latest METARs ("Meteorological Services to Airmen Reports"), for RNAS Culdrose and Newquay Airport.

EGDR - RNAS Culdrose
Distance from station: SW 6mi, 9km
Updated: Wed, 21-Nov-2018 2:23pm GMT
Nearby showers, Partly cloudy
Nearby showers, Partly cloudy
 Wind from S
Wind: S 6 mph , 9 km/h
Temperature: 48°F , 9°C
Wind Chill: 45°F , 7°C
Dew Point: 39°F , 4°C
Humidity: 71%
Barometer: 29.74 inHg , 1007 hPa
Summary: Nearby Showers
Clouds: Partly Cloudy
Visibility: 6 miles , 10 km
Cloud details: Few Clouds 1400 ft
Few Clouds 1800 ft
Partly Cloudy 2500 ft
2018/11/21 14:23 EGDR 211423Z 17005KT 9999 VCSH FEW014 FEW018CB SCT025 09/04 Q1007 BLU TEMPO 8000 -SHRA SCT018CB WHT
EGHQ - Newquay Airport
Distance from station: NE 21mi, 34km
Updated: Wed, 21-Nov-2018 2:20pm GMT
Few Clouds
Few Clouds
 Wind from SSE
Wind: SSE 9 mph , 15 km/h
Temperature: 45°F , 7°C
Wind Chill: 40°F , 4°C
Dew Point: 37°F , 3°C
Humidity: 76%
Barometer: 29.77 inHg , 1008 hPa
Clouds: Few Clouds
Visibility: 6 miles , 10 km
Cloud details: Few Clouds 2000 ft
Few Clouds 4000 ft
2018/11/21 14:20 EGHQ 211420Z 16008KT 140V200 9999 FEW020 FEW040CB 07/03 Q1008
 
EGTE - Exeter Airport
Distance from station: ENE 88mi, 141km
Updated: Wed, 21-Nov-2018 2:20pm GMT
Partly Cloudy
Partly Cloudy
 Wind from varies
Wind: varies 2 mph , 4 km/h
Temperature: 43°F , 6°C
Dew Point: 39°F , 4°C
Humidity: 87%
Barometer: 29.83 inHg , 1010 hPa
Clouds: Partly Cloudy
Visibility: 6 miles , 10 km
Cloud details: Few Clouds 2500 ft
Partly Cloudy 3000 ft
2018/11/21 14:20 EGTE 211420Z VRB02KT 9999 FEW025 SCT030 06/04 Q1010
EGHE - St Marys, IOS
Distance from station: W 51mi, 82km
Updated: Wed, 21-Nov-2018 2:20pm GMT
Few Clouds
Few Clouds
 Wind from S
Wind: S 15 mph , 24 km/h
Temperature: 50°F , 10°C
Wind Chill: 45°F , 7°C
Dew Point: 41°F , 5°C
Humidity: 71%
Barometer: 29.71 inHg , 1006 hPa
Clouds: Few Clouds
Visibility: 6 miles , 10 km
Cloud details: Few Clouds 2700 ft
2018/11/21 14:20 EGHE 211420Z 18013KT 9999 FEW027 10/05 Q1006

Metar display script from Saratoga-Weather.org

UK - WEATHER STATION TOPSITES - UK World Weather Websites

This is a private weather station, never base important decisions or events on data from this weather station. Although every effort has been made to make the data as accurate as possible it does not meet MetOffice standards. It is proved as a guide of local weather conditions. We accept no liability for any loss which may arise from use of the data.

Copyright © Carnkie Weather 2009 - 2018.